createdAt,value
2022-09-13T00:03:54.903Z,4.55
2022-09-13T00:08:56.282Z,7.28
2022-09-13T00:13:58.237Z,4.75
2022-09-13T00:19:00.313Z,4.55
2022-09-13T00:24:01.880Z,7.25
2022-09-13T00:29:03.251Z,6.03
2022-09-13T00:34:04.591Z,5.50
2022-09-13T00:39:05.942Z,6.15
2022-09-13T00:44:45.713Z,5.43
2022-09-13T00:49:52.188Z,6.70
2022-09-13T00:55:01.854Z,5.55
2022-09-13T01:00:13.738Z,4.32
2022-09-13T01:05:18.777Z,5.75
2022-09-13T01:10:20.387Z,5.57
2022-09-13T01:15:21.991Z,4.80
2022-09-13T01:20:37.803Z,5.18
2022-09-13T01:26:00.647Z,4.30
2022-09-13T01:31:10.000Z,6.22
2022-09-13T01:36:39.430Z,5.75
2022-09-13T01:41:50.376Z,5.38
2022-09-13T01:47:06.928Z,4.28
2022-09-13T01:52:16.379Z,5.28
2022-09-13T01:57:27.009Z,5.90
2022-09-13T02:02:36.886Z,5.78
2022-09-13T02:07:42.306Z,6.38
2022-09-13T02:12:47.085Z,4.72
2022-09-13T02:18:10.863Z,4.28
2022-09-13T02:23:17.073Z,6.88
2022-09-13T02:28:27.259Z,5.93
2022-09-13T02:33:36.018Z,9.25
2022-09-13T02:38:45.118Z,6.43
2022-09-13T02:43:53.535Z,6.88
2022-09-13T02:49:21.011Z,4.47
2022-09-13T02:54:52.410Z,4.72
2022-09-13T02:59:53.802Z,5.82
2022-09-13T03:04:55.515Z,6.53
2022-09-13T03:10:09.486Z,6.03
2022-09-13T03:15:23.704Z,6.70
2022-09-13T03:20:39.146Z,8.30
2022-09-13T03:26:07.281Z,5.25
2022-09-13T03:31:20.819Z,7.82
2022-09-13T03:36:37.155Z,6.53
2022-09-13T03:41:46.600Z,7.63
2022-09-13T03:46:52.171Z,8.15
2022-09-13T03:51:53.650Z,7.43
2022-09-13T03:57:17.381Z,5.43
2022-09-13T04:02:20.477Z,8.13
2022-09-13T04:07:24.691Z,7.20
2022-09-13T04:12:27.034Z,7.35
2022-09-13T04:17:28.453Z,7.22
2022-09-13T04:22:29.790Z,7.60
2022-09-13T04:27:31.305Z,7.80
2022-09-13T04:32:33.726Z,6.97
2022-09-13T04:37:35.171Z,6.80
2022-09-13T04:42:36.707Z,7.38
2022-09-13T04:47:38.078Z,8.13
2022-09-13T04:52:39.480Z,6.03
2022-09-13T04:57:41.762Z,10.77
2022-09-13T05:02:43.129Z,9.40
2022-09-13T05:07:44.454Z,10.75
2022-09-13T05:12:46.080Z,8.82
2022-09-13T05:17:47.450Z,10.05
2022-09-13T05:22:48.806Z,9.13
2022-09-13T05:27:50.146Z,7.20
2022-09-13T05:32:51.539Z,13.75
2022-09-13T05:37:52.877Z,7.90
2022-09-13T05:42:54.255Z,10.63
2022-09-13T05:47:55.576Z,8.77
2022-09-13T05:52:57.061Z,12.10
2022-09-13T05:57:58.434Z,9.82
2022-09-13T06:03:00.723Z,9.20
2022-09-13T06:08:02.447Z,8.93
2022-09-13T06:13:03.829Z,10.38
2022-09-13T06:18:05.206Z,9.57
2022-09-13T06:23:06.546Z,12.35
2022-09-13T06:28:09.201Z,14.60
2022-09-13T06:33:10.532Z,10.75
2022-09-13T06:38:11.886Z,11.45
2022-09-13T06:43:13.250Z,10.20
2022-09-13T06:48:21.246Z,16.08
2022-09-13T06:53:22.579Z,13.45
2022-09-13T06:58:23.922Z,10.63
2022-09-13T07:03:27.127Z,9.10
2022-09-13T07:08:28.502Z,11.15
2022-09-13T07:13:30.152Z,9.77
2022-09-13T07:18:31.959Z,11.82
2022-09-13T07:23:35.145Z,11.80
2022-09-13T07:28:39.460Z,11.60
2022-09-13T07:33:42.687Z,15.95
2022-09-13T07:38:46.981Z,12.82
2022-09-13T07:43:49.196Z,12.23
2022-09-13T07:48:53.837Z,13.98
2022-09-13T07:53:58.981Z,11.20
2022-09-13T07:59:03.559Z,11.98
2022-09-13T08:04:10.139Z,10.70
2022-09-13T08:09:11.878Z,12.07
2022-09-13T08:14:15.599Z,11.68
2022-09-13T08:19:18.846Z,11.07
2022-09-13T08:24:21.597Z,12.85
2022-09-13T08:29:23.701Z,12.48
2022-09-13T08:34:25.525Z,10.20
2022-09-13T08:39:29.243Z,12.40
2022-09-13T08:44:42.123Z,15.30
2022-09-13T08:49:48.426Z,12.98
2022-09-13T08:54:54.828Z,12.88
2022-09-13T09:00:04.769Z,15.02
2022-09-13T09:05:16.973Z,14.52
2022-09-13T09:10:27.419Z,15.80
2022-09-13T09:15:39.612Z,15.65
2022-09-13T09:20:44.214Z,13.70
2022-09-13T09:25:47.043Z,13.30
2022-09-13T09:31:12.328Z,11.80
2022-09-13T09:36:28.579Z,12.25
2022-09-13T09:41:35.225Z,13.35
2022-09-13T09:46:40.367Z,10.57
2022-09-13T09:51:42.015Z,13.27
2022-09-13T09:56:53.987Z,10.15
2022-09-13T10:01:57.739Z,9.30
2022-09-13T10:07:30.922Z,13.23
2022-09-13T10:12:35.641Z,13.63
2022-09-13T10:17:37.015Z,11.35
2022-09-13T10:22:38.651Z,12.15
2022-09-13T10:27:47.627Z,11.25
2022-09-13T10:32:56.321Z,11.13
2022-09-13T10:37:57.835Z,18.13
2022-09-13T10:43:03.270Z,15.23
2022-09-13T10:48:15.218Z,12.65
2022-09-13T10:53:40.569Z,15.32
2022-09-13T10:58:41.947Z,15.60
2022-09-13T11:04:14.609Z,15.85
2022-09-13T11:09:19.749Z,14.07
2022-09-13T11:14:29.855Z,16.60
2022-09-13T11:19:55.160Z,12.60
2022-09-13T11:25:47.821Z,12.52
2022-09-13T11:35:53.479Z,9.85
2022-09-13T11:41:33.158Z,9.70
2022-09-13T11:46:41.234Z,9.23
2022-09-13T11:51:50.837Z,11.55
2022-09-13T11:56:56.946Z,9.93
2022-09-13T12:02:03.259Z,9.75
2022-09-13T12:07:12.320Z,11.50
2022-09-13T12:12:14.501Z,11.10
2022-09-13T12:17:23.646Z,11.13
2022-09-13T12:22:31.002Z,14.95
2022-09-13T12:28:02.104Z,11.75
2022-09-13T12:33:05.894Z,11.82
2022-09-13T12:38:16.409Z,10.32
2022-09-13T12:43:37.393Z,10.88
2022-09-13T12:48:44.436Z,9.27
2022-09-13T12:53:45.885Z,9.65
2022-09-13T12:59:35.952Z,9.82
2022-09-13T13:04:37.541Z,12.33
2022-09-13T13:09:48.593Z,10.98
2022-09-13T13:14:53.349Z,12.65
2022-09-13T13:19:56.587Z,12.20
2022-09-13T13:24:58.064Z,10.85
2022-09-13T13:30:33.546Z,9.55
2022-09-13T13:35:35.014Z,9.88
2022-09-13T13:40:36.547Z,11.38
2022-09-13T13:45:37.972Z,10.77
2022-09-13T13:51:10.658Z,7.65
2022-09-13T13:56:21.068Z,8.32
2022-09-13T14:01:27.257Z,6.82
2022-09-13T14:06:54.674Z,8.57
2022-09-13T14:12:34.357Z,9.43
2022-09-13T14:17:58.235Z,10.10
2022-09-13T14:23:17.560Z,9.35
2022-09-13T14:28:22.362Z,11.52
2022-09-13T14:33:35.095Z,11.18
2022-09-13T14:38:37.012Z,8.90
2022-09-13T14:43:38.755Z,7.35
2022-09-13T14:48:51.662Z,8.32
2022-09-13T14:53:59.856Z,7.47
2022-09-13T14:59:05.191Z,8.93
2022-09-13T15:04:07.518Z,8.43
2022-09-13T15:09:12.085Z,9.02
2022-09-13T15:14:26.115Z,9.15
2022-09-13T15:19:31.083Z,8.55
2022-09-13T15:24:35.155Z,8.15
2022-09-13T15:29:37.562Z,13.80
2022-09-13T15:34:48.548Z,9.18
2022-09-13T15:40:06.307Z,8.05
2022-09-13T15:45:07.941Z,11.32
2022-09-13T15:50:19.735Z,9.95
2022-09-13T15:55:21.800Z,8.00
2022-09-13T16:00:25.803Z,10.23
2022-09-13T16:05:27.361Z,9.52
2022-09-13T16:10:28.771Z,10.57
2022-09-13T16:15:30.459Z,9.18
2022-09-13T16:20:31.840Z,7.95
2022-09-13T16:25:34.808Z,7.75
2022-09-13T16:30:36.775Z,10.32
2022-09-13T16:35:38.351Z,7.97
2022-09-13T16:40:43.993Z,13.82
2022-09-13T16:45:45.388Z,8.38
2022-09-13T16:50:46.735Z,6.88
2022-09-13T16:55:48.101Z,8.90
2022-09-13T17:00:49.612Z,9.68
2022-09-13T17:05:59.562Z,7.18
2022-09-13T17:11:05.124Z,9.97
2022-09-13T17:16:18.560Z,9.98
2022-09-13T17:21:20.922Z,6.70
2022-09-13T17:26:22.943Z,8.10
2022-09-13T17:31:24.434Z,7.97
2022-09-13T17:36:25.810Z,6.78
2022-09-13T17:41:27.213Z,7.18
2022-09-13T17:46:30.042Z,6.05
2022-09-13T17:51:32.959Z,6.53
2022-09-13T17:56:37.208Z,8.18
2022-09-13T18:01:41.873Z,4.80
2022-09-13T18:06:44.271Z,5.68
2022-09-13T18:11:45.976Z,6.63
2022-09-13T18:16:51.943Z,4.97
2022-09-13T18:21:53.898Z,7.28
2022-09-13T18:26:55.238Z,4.95
2022-09-13T18:31:56.971Z,5.70
2022-09-13T18:36:58.543Z,5.07
2022-09-13T18:42:01.046Z,5.53
2022-09-13T18:47:04.671Z,5.53
2022-09-13T18:52:06.272Z,4.72
2022-09-13T18:57:07.665Z,4.45
2022-09-13T19:02:11.058Z,7.15
2022-09-13T19:07:12.606Z,3.80
2022-09-13T19:12:13.961Z,2.47
2022-09-13T19:17:15.795Z,3.30
2022-09-13T19:22:17.587Z,3.05
2022-09-13T19:27:19.797Z,2.25
2022-09-13T19:32:21.160Z,3.63
2022-09-13T19:37:22.563Z,4.22
2022-09-13T19:42:23.931Z,2.83
2022-09-13T19:52:47.926Z,2.17
2022-09-13T19:57:49.570Z,3.25
2022-09-13T20:02:50.982Z,1.75
2022-09-13T20:07:52.584Z,4.78
2022-09-13T20:12:54.497Z,2.08
2022-09-13T20:17:55.871Z,4.07
2022-09-13T20:22:57.223Z,2.67
2022-09-13T20:27:58.589Z,2.17
2022-09-13T20:32:59.958Z,5.20
2022-09-13T20:38:01.311Z,1.92
2022-09-13T20:43:02.807Z,3.58
2022-09-13T20:48:04.237Z,2.97
2022-09-13T20:53:05.584Z,2.30
2022-09-13T20:58:06.946Z,3.50
2022-09-13T21:03:09.175Z,4.60
2022-09-13T21:08:34.578Z,4.55
2022-09-13T21:13:37.999Z,2.15
2022-09-13T21:18:40.073Z,3.70
2022-09-13T21:23:41.791Z,2.90
2022-09-13T21:28:44.271Z,3.05
2022-09-13T21:33:46.058Z,2.50
2022-09-13T21:38:47.467Z,2.92
2022-09-13T21:43:49.494Z,3.55
2022-09-13T21:48:59.164Z,5.05
2022-09-13T21:54:02.401Z,4.07
2022-09-13T21:59:06.823Z,1.98
2022-09-13T22:04:12.994Z,1.83
2022-09-13T22:09:15.360Z,1.70
2022-09-13T22:14:19.735Z,5.28
2022-09-13T22:19:26.359Z,4.90
2022-09-13T22:24:31.779Z,3.90
2022-09-13T22:29:33.232Z,3.15
2022-09-13T22:34:34.945Z,3.80
2022-09-13T22:39:36.337Z,2.20
2022-09-13T22:44:37.671Z,2.17
2022-09-13T22:49:39.086Z,3.20
2022-09-13T22:54:40.418Z,4.15
2022-09-13T22:59:42.625Z,3.97
2022-09-13T23:04:44.190Z,3.70
2022-09-13T23:09:45.611Z,5.38
2022-09-13T23:14:47.125Z,5.63
2022-09-13T23:19:48.466Z,4.65
2022-09-13T23:24:49.859Z,3.53
2022-09-13T23:29:51.463Z,4.25
2022-09-13T23:34:52.883Z,2.60
2022-09-13T23:39:57.773Z,6.18
2022-09-13T23:44:59.227Z,6.03
2022-09-13T23:50:00.586Z,4.85
2022-09-13T23:55:02.141Z,4.22
